sensor_id;sensor_type;location;lat;lon;timestamp;pressure;altitude;pressure_sealevel;temperature;humidity
72061;BME280;59925;52.136;5.420;2023-04-01T00:01:05;99217.38;;;9.08;100.00
72061;BME280;59925;52.136;5.420;2023-04-01T00:03:32;99224.31;;;9.09;100.00
72061;BME280;59925;52.136;5.420;2023-04-01T00:06:00;99222.91;;;9.11;100.00
72061;BME280;59925;52.136;5.420;2023-04-01T00:08:26;99221.63;;;9.09;100.00
72061;BME280;59925;52.136;5.420;2023-04-01T00:10:53;99222.72;;;9.08;100.00
72061;BME280;59925;52.136;5.420;2023-04-01T00:13:20;99224.00;;;9.10;100.00
72061;BME280;59925;52.136;5.420;2023-04-01T00:15:47;99227.47;;;9.11;100.00
72061;BME280;59925;52.136;5.420;2023-04-01T00:18:14;99226.66;;;9.10;100.00
72061;BME280;59925;52.136;5.420;2023-04-01T00:20:45;99228.56;;;9.10;100.00
72061;BME280;59925;52.136;5.420;2023-04-01T00:23:12;99228.25;;;9.11;100.00
72061;BME280;59925;52.136;5.420;2023-04-01T00:25:39;99231.72;;;9.12;100.00
72061;BME280;59925;52.136;5.420;2023-04-01T00:28:06;99229.84;;;9.12;100.00
72061;BME280;59925;52.136;5.420;2023-04-01T00:30:32;99227.16;;;9.12;100.00
72061;BME280;59925;52.136;5.420;2023-04-01T00:32:59;99238.66;;;9.13;100.00
72061;BME280;59925;52.136;5.420;2023-04-01T00:35:25;99237.09;;;9.12;100.00
72061;BME280;59925;52.136;5.420;2023-04-01T00:37:52;99226.66;;;9.10;100.00
72061;BME280;59925;52.136;5.420;2023-04-01T00:40:45;99233.59;;;9.11;100.00
72061;BME280;59925;52.136;5.420;2023-04-01T00:45:41;99230.03;;;9.16;100.00
72061;BME280;59925;52.136;5.420;2023-04-01T00:48:11;99233.78;;;9.15;100.00
72061;BME280;59925;52.136;5.420;2023-04-01T00:50:41;99234.69;;;9.10;100.00
72061;BME280;59925;52.136;5.420;2023-04-01T00:53:09;99228.25;;;9.11;100.00
72061;BME280;59925;52.136;5.420;2023-04-01T00:55:39;99234.19;;;9.08;100.00
72061;BME280;59925;52.136;5.420;2023-04-01T00:58:13;99244.59;;;9.10;100.00
72061;BME280;59925;52.136;5.420;2023-04-01T01:00:40;99239.53;;;9.08;100.00
72061;BME280;59925;52.136;5.420;2023-04-01T01:03:08;99246.78;;;9.08;100.00
72061;BME280;59925;52.136;5.420;2023-04-01T01:11:35;99247.09;;;9.06;100.00
72061;BME280;59925;52.136;5.420;2023-04-01T01:14:17;99245.78;;;9.03;100.00
72061;BME280;59925;52.136;5.420;2023-04-01T01:16:53;99251.94;;;9.04;100.00
72061;BME280;59925;52.136;5.420;2023-04-01T01:30:52;99257.47;;;8.94;100.00
72061;BME280;59925;52.136;5.420;2023-04-01T01:33:42;99255.41;;;8.91;100.00
72061;BME280;59925;52.136;5.420;2023-04-01T01:36:13;99255.41;;;8.91;100.00
72061;BME280;59925;52.136;5.420;2023-04-01T01:38:42;99256.75;;;8.88;100.00
72061;BME280;59925;52.136;5.420;2023-04-01T01:41:12;99264.78;;;8.88;100.00
72061;BME280;59925;52.136;5.420;2023-04-01T01:43:46;99260.84;;;8.85;100.00
72061;BME280;59925;52.136;5.420;2023-04-01T01:46:17;99257.38;;;8.85;100.00
72061;BME280;59925;52.136;5.420;2023-04-01T01:48:46;99261.13;;;8.84;100.00
72061;BME280;59925;52.136;5.420;2023-04-01T01:51:14;99265.09;;;8.86;100.00
72061;BME280;59925;52.136;5.420;2023-04-01T01:53:40;99272.09;;;8.82;100.00
72061;BME280;59925;52.136;5.420;2023-04-01T01:56:07;99260.72;;;8.77;100.00
72061;BME280;59925;52.136;5.420;2023-04-01T01:58:41;99259.13;;;8.76;100.00
72061;BME280;59925;52.136;5.420;2023-04-01T02:01:13;99262.88;;;8.74;100.00
72061;BME280;59925;52.136;5.420;2023-04-01T02:03:42;99266.66;;;8.73;100.00
72061;BME280;59925;52.136;5.420;2023-04-01T02:06:11;99269.94;;;8.70;100.00
72061;BME280;59925;52.136;5.420;2023-04-01T02:11:19;99270.81;;;8.66;100.00
72061;BME280;59925;52.136;5.420;2023-04-01T02:16:27;99272.78;;;8.60;100.00
72061;BME280;59925;52.136;5.420;2023-04-01T02:18:57;99277.31;;;8.59;100.00
72061;BME280;59925;52.136;5.420;2023-04-01T02:21:27;99285.66;;;8.58;100.00
72061;BME280;59925;52.136;5.420;2023-04-01T02:23:57;99281.91;;;8.59;100.00
72061;BME280;59925;52.136;5.420;2023-04-01T02:26:26;99280.31;;;8.58;100.00
72061;BME280;59925;52.136;5.420;2023-04-01T02:28:54;99276.56;;;8.59;100.00
72061;BME280;59925;52.136;5.420;2023-04-01T02:31:22;99282.97;;;8.58;100.00
72061;BME280;59925;52.136;5.420;2023-04-01T02:33:49;99275.47;;;8.60;100.00
72061;BME280;59925;52.136;5.420;2023-04-01T02:36:16;99291.78;;;8.58;100.00
72061;BME280;59925;52.136;5.420;2023-04-01T02:38:45;99283.75;;;8.58;100.00
72061;BME280;59925;52.136;5.420;2023-04-01T02:41:13;99289.97;;;8.54;100.00
72061;BME280;59925;52.136;5.420;2023-04-01T02:43:39;99284.34;;;8.55;100.00
72061;BME280;59925;52.136;5.420;2023-04-01T02:46:06;99289.97;;;8.54;100.00
72061;BME280;59925;52.136;5.420;2023-04-01T02:48:32;99290.28;;;8.52;100.00
72061;BME280;59925;52.136;5.420;2023-04-01T02:50:59;99293.44;;;8.54;100.00
72061;BME280;59925;52.136;5.420;2023-04-01T02:53:25;99291.88;;;8.53;100.00
72061;BME280;59925;52.136;5.420;2023-04-01T02:55:52;99294.81;;;8.52;100.00
72061;BME280;59925;52.136;5.420;2023-04-01T02:58:18;99292.16;;;8.52;100.00
72061;BME280;59925;52.136;5.420;2023-04-01T03:00:45;99291.06;;;8.53;100.00
72061;BME280;59925;52.136;5.420;2023-04-01T03:03:12;99300.66;;;8.54;100.00
72061;BME280;59925;52.136;5.420;2023-04-01T03:05:40;99299.06;;;8.53;100.00
72061;BME280;59925;52.136;5.420;2023-04-01T03:08:06;99302.25;;;8.55;100.00
72061;BME280;59925;52.136;5.420;2023-04-01T03:10:32;99297.41;;;8.57;100.00
72061;BME280;59925;52.136;5.420;2023-04-01T03:12:59;99301.44;;;8.54;100.00
72061;BME280;59925;52.136;5.420;2023-04-01T03:15:25;99302.25;;;8.55;100.00
72061;BME280;59925;52.136;5.420;2023-04-01T03:17:52;99309.75;;;8.53;100.00
72061;BME280;59925;52.136;5.420;2023-04-01T03:20:19;99309.25;;;8.51;100.00
72061;BME280;59925;52.136;5.420;2023-04-01T03:22:45;99314.53;;;8.56;100.00
72061;BME280;59925;52.136;5.420;2023-04-01T03:25:12;99320.38;;;8.58;100.00
72061;BME280;59925;52.136;5.420;2023-04-01T03:27:39;99321.16;;;8.58;100.00
72061;BME280;59925;52.136;5.420;2023-04-01T03:30:06;99318.47;;;8.58;100.00
72061;BME280;59925;52.136;5.420;2023-04-01T03:32:33;99322.53;;;8.56;100.00
72061;BME280;59925;52.136;5.420;2023-04-01T03:34:59;99324.91;;;8.57;100.00
72061;BME280;59925;52.136;5.420;2023-04-01T03:37:26;99328.38;;;8.58;100.00
72061;BME280;59925;52.136;5.420;2023-04-01T03:39:52;99331.34;;;8.56;100.00
72061;BME280;59925;52.136;5.420;2023-04-01T03:42:19;99334.59;;;8.53;100.00
72061;BME280;59925;52.136;5.420;2023-04-01T03:44:45;99340.44;;;8.55;100.00
72061;BME280;59925;52.136;5.420;2023-04-01T03:47:12;99337.28;;;8.53;100.00
72061;BME280;59925;52.136;5.420;2023-04-01T03:49:38;99339.16;;;8.53;100.00
72061;BME280;59925;52.136;5.420;2023-04-01T03:52:08;99351.91;;;8.56;100.00
72061;BME280;59925;52.136;5.420;2023-04-01T03:54:35;99343.09;;;8.55;100.00
72061;BME280;59925;52.136;5.420;2023-04-01T03:57:01;99347.66;;;8.55;100.00
72061;BME280;59925;52.136;5.420;2023-04-01T03:59:28;99346.84;;;8.54;100.00
72061;BME280;59925;52.136;5.420;2023-04-01T04:01:54;99350.34;;;8.55;100.00
72061;BME280;59925;52.136;5.420;2023-04-01T04:04:21;99361.53;;;8.57;100.00
72061;BME280;59925;52.136;5.420;2023-04-01T04:06:47;99355.38;;;8.56;100.00
72061;BME280;59925;52.136;5.420;2023-04-01T04:09:14;99353.50;;;8.57;100.00
72061;BME280;59925;52.136;5.420;2023-04-01T04:11:40;99357.25;;;8.56;100.00
72061;BME280;59925;52.136;5.420;2023-04-01T04:14:07;99363.88;;;8.58;100.00
72061;BME280;59925;52.136;5.420;2023-04-01T04:16:35;99372.72;;;8.59;100.00
72061;BME280;59925;52.136;5.420;2023-04-01T04:19:03;99373.50;;;8.59;100.00
72061;BME280;59925;52.136;5.420;2023-04-01T04:21:29;99375.88;;;8.61;100.00
72061;BME280;59925;52.136;5.420;2023-04-01T04:23:56;99376.66;;;8.62;100.00
72061;BME280;59925;52.136;5.420;2023-04-01T04:26:22;99382.78;;;8.62;100.00
72061;BME280;59925;52.136;5.420;2023-04-01T04:28:49;99384.38;;;8.63;100.00
72061;BME280;59925;52.136;5.420;2023-04-01T04:31:22;99388.66;;;8.64;100.00
72061;BME280;59925;52.136;5.420;2023-04-01T04:33:50;99395.28;;;8.67;100.00
72061;BME280;59925;52.136;5.420;2023-04-01T04:36:18;99394.19;;;8.68;100.00
72061;BME280;59925;52.136;5.420;2023-04-01T04:38:44;99397.66;;;8.68;100.00
72061;BME280;59925;52.136;5.420;2023-04-01T04:41:17;99397.66;;;8.68;100.00
72061;BME280;59925;52.136;5.420;2023-04-01T04:43:53;99404.88;;;8.68;100.00
72061;BME280;59925;52.136;5.420;2023-04-01T04:46:20;99405.38;;;8.70;100.00
72061;BME280;59925;52.136;5.420;2023-04-01T04:48:47;99412.31;;;8.71;100.00
72061;BME280;59925;52.136;5.420;2023-04-01T04:51:15;99415.50;;;8.73;100.00
72061;BME280;59925;52.136;5.420;2023-04-01T04:53:42;99424.78;;;8.76;100.00
72061;BME280;59925;52.136;5.420;2023-04-01T04:56:09;99430.13;;;8.76;100.00
72061;BME280;59925;52.136;5.420;2023-04-01T04:58:36;99431.72;;;8.77;100.00
72061;BME280;59925;52.136;5.420;2023-04-01T05:01:11;99434.13;;;8.78;100.00
72061;BME280;59925;52.136;5.420;2023-04-01T05:03:38;99440.75;;;8.81;100.00
72061;BME280;59925;52.136;5.420;2023-04-01T05:06:05;99445.81;;;8.82;100.00
72061;BME280;59925;52.136;5.420;2023-04-01T05:08:32;99449.28;;;8.83;100.00
72061;BME280;59925;52.136;5.420;2023-04-01T05:11:00;99456.22;;;8.84;100.00
72061;BME280;59925;52.136;5.420;2023-04-01T05:13:28;99452.47;;;8.85;100.00
72061;BME280;59925;52.136;5.420;2023-04-01T05:15:55;99461.25;;;8.85;100.00
72061;BME280;59925;52.136;5.420;2023-04-01T05:18:21;99464.75;;;8.86;100.00
72061;BME280;59925;52.136;5.420;2023-04-01T05:20:49;99463.94;;;8.85;100.00
72061;BME280;59925;52.136;5.420;2023-04-01T05:23:17;99476.22;;;8.86;100.00
72061;BME280;59925;52.136;5.420;2023-04-01T05:25:44;99472.16;;;8.89;100.00
72061;BME280;59925;52.136;5.420;2023-04-01T05:28:11;99483.16;;;8.87;100.00
72061;BME280;59925;52.136;5.420;2023-04-01T05:30:40;99480.47;;;8.87;100.00
72061;BME280;59925;52.136;5.420;2023-04-01T05:33:09;99489.28;;;8.88;100.00
72061;BME280;59925;52.136;5.420;2023-04-01T05:35:35;99497.28;;;8.88;100.00
72061;BME280;59925;52.136;5.420;2023-04-01T05:38:03;99494.63;;;8.88;100.00
72061;BME280;59925;52.136;5.420;2023-04-01T05:40:30;99506.13;;;8.88;100.00
72061;BME280;59925;52.136;5.420;2023-04-01T05:42:57;99499.69;;;8.89;100.00
72061;BME280;59925;52.136;5.420;2023-04-01T05:45:24;99510.38;;;8.89;100.00
72061;BME280;59925;52.136;5.420;2023-04-01T05:47:50;99517.59;;;8.89;100.00
72061;BME280;59925;52.136;5.420;2023-04-01T05:50:17;99519.69;;;8.92;100.00
72061;BME280;59925;52.136;5.420;2023-04-01T05:52:43;99514.66;;;8.91;100.00
72061;BME280;59925;52.136;5.420;2023-04-01T05:55:11;99522.94;;;8.89;100.00
72061;BME280;59925;52.136;5.420;2023-04-01T05:57:37;99521.06;;;8.89;100.00
72061;BME280;59925;52.136;5.420;2023-04-01T06:00:04;99521.28;;;8.93;100.00
72061;BME280;59925;52.136;5.420;2023-04-01T06:02:31;99526.63;;;8.93;100.00
72061;BME280;59925;52.136;5.420;2023-04-01T06:05:30;99526.31;;;8.95;100.00
72061;BME280;59925;52.136;5.420;2023-04-01T06:08:10;99537.00;;;8.95;100.00
72061;BME280;59925;52.136;5.420;2023-04-01T06:19:05;99553.56;;;8.97;100.00
72061;BME280;59925;52.136;5.420;2023-04-01T06:21:49;99559.72;;;8.97;100.00
72061;BME280;59925;52.136;5.420;2023-04-01T06:30:16;99571.41;;;9.01;100.00
72061;BME280;59925;52.136;5.420;2023-04-01T06:32:59;99581.00;;;9.02;100.00
72061;BME280;59925;52.136;5.420;2023-04-01T06:44:06;99588.47;;;9.05;100.00
72061;BME280;59925;52.136;5.420;2023-04-01T06:46:39;99590.84;;;9.07;100.00
72061;BME280;59925;52.136;5.420;2023-04-01T06:52:19;99610.56;;;9.11;100.00
72061;BME280;59925;52.136;5.420;2023-04-01T06:55:01;99612.97;;;9.13;100.00
72061;BME280;59925;52.136;5.420;2023-04-01T06:57:41;99613.44;;;9.15;100.00
72061;BME280;59925;52.136;5.420;2023-04-01T07:00:28;99619.59;;;9.15;100.00
72061;BME280;59925;52.136;5.420;2023-04-01T07:05:34;99627.53;;;9.20;100.00
72061;BME280;59925;52.136;5.420;2023-04-01T07:08:05;99622.19;;;9.20;100.00
72061;BME280;59925;52.136;5.420;2023-04-01T07:13:28;99641.94;;;9.25;100.00
72061;BME280;59925;52.136;5.420;2023-04-01T07:16:08;99648.88;;;9.26;100.00
72061;BME280;59925;52.136;5.420;2023-04-01T07:18:51;99647.50;;;9.28;100.00
72061;BME280;59925;52.136;5.420;2023-04-01T07:21:25;99653.34;;;9.30;100.00
72061;BME280;59925;52.136;5.420;2023-04-01T07:23:54;99658.44;;;9.32;100.00
72061;BME280;59925;52.136;5.420;2023-04-01T07:26:23;99659.72;;;9.34;100.00
72061;BME280;59925;52.136;5.420;2023-04-01T07:28:52;99668.47;;;9.40;100.00
72061;BME280;59925;52.136;5.420;2023-04-01T07:47:53;99691.16;;;9.43;100.00
72061;BME280;59925;52.136;5.420;2023-04-01T07:50:28;99697.31;;;9.43;100.00
72061;BME280;59925;52.136;5.420;2023-04-01T07:53:26;99702.88;;;9.47;100.00
72061;BME280;59925;52.136;5.420;2023-04-01T08:01:14;99719.72;;;9.47;100.00
72061;BME280;59925;52.136;5.420;2023-04-01T08:06:50;99730.72;;;9.46;100.00
72061;BME280;59925;52.136;5.420;2023-04-01T08:09:43;99735.28;;;9.45;100.00
72061;BME280;59925;52.136;5.420;2023-04-01T08:12:22;99728.81;;;9.46;100.00
72061;BME280;59925;52.136;5.420;2023-04-01T08:15:12;99745.88;;;9.50;100.00
72061;BME280;59925;52.136;5.420;2023-04-01T08:20:46;99747.69;;;9.55;100.00
72061;BME280;59925;52.136;5.420;2023-04-01T08:23:23;99742.94;;;9.52;100.00
72061;BME280;59925;52.136;5.420;2023-04-01T08:26:00;99759.00;;;9.52;100.00
72061;BME280;59925;52.136;5.420;2023-04-01T08:28:40;99754.72;;;9.51;100.00
72061;BME280;59925;52.136;5.420;2023-04-01T08:31:29;99770.47;;;9.53;100.00
72061;BME280;59925;52.136;5.420;2023-04-01T08:33:57;99767.50;;;9.54;100.00
72061;BME280;59925;52.136;5.420;2023-04-01T08:36:24;99771.00;;;9.55;100.00
72061;BME280;59925;52.136;5.420;2023-04-01T08:38:55;99772.00;;;9.59;100.00
72061;BME280;59925;52.136;5.420;2023-04-01T08:52:33;99804.25;;;9.68;100.00
72061;BME280;59925;52.136;5.420;2023-04-01T08:55:25;99802.59;;;9.72;100.00
72061;BME280;59925;52.136;5.420;2023-04-01T08:58:30;99804.03;;;9.83;100.00
72061;BME280;59925;52.136;5.420;2023-04-01T09:21:24;99833.78;;;10.01;100.00
72061;BME280;59925;52.136;5.420;2023-04-01T09:24:22;99835.66;;;10.00;100.00
72061;BME280;59925;52.136;5.420;2023-04-01T09:27:13;99843.69;;;10.00;100.00
72061;BME280;59925;52.136;5.420;2023-04-01T09:29:52;99849.34;;;9.99;100.00
72061;BME280;59925;52.136;5.420;2023-04-01T09:38:29;99861.22;;;10.11;100.00
72061;BME280;59925;52.136;5.420;2023-04-01T09:41:07;99863.75;;;10.22;100.00
72061;BME280;59925;52.136;5.420;2023-04-01T09:46:47;99869.53;;;10.48;100.00
72061;BME280;59925;52.136;5.420;2023-04-01T09:49:42;99870.16;;;10.59;100.00
72061;BME280;59925;52.136;5.420;2023-04-01T09:55:06;99872.91;;;10.54;100.00
72061;BME280;59925;52.136;5.420;2023-04-01T10:09:06;99889.38;;;11.55;100.00
72061;BME280;59925;52.136;5.420;2023-04-01T10:18:07;99901.69;;;11.84;100.00
72061;BME280;59925;52.136;5.420;2023-04-01T10:45:46;99925.06;;;11.56;99.25
72061;BME280;59925;52.136;5.420;2023-04-01T10:51:17;99928.34;;;11.67;99.09
72061;BME280;59925;52.136;5.420;2023-04-01T11:16:27;99942.56;;;11.53;96.17
72061;BME280;59925;52.136;5.420;2023-04-01T11:26:17;99955.19;;;11.53;97.43
72061;BME280;59925;52.136;5.420;2023-04-01T11:43:26;99984.53;;;11.91;96.02
72061;BME280;59925;52.136;5.420;2023-04-01T11:46:12;99990.50;;;11.74;95.39
72061;BME280;59925;52.136;5.420;2023-04-01T11:49:00;99995.97;;;11.69;95.22
72061;BME280;59925;52.136;5.420;2023-04-01T12:03:10;100011.34;;;11.49;96.38
72061;BME280;59925;52.136;5.420;2023-04-01T12:06:08;100020.22;;;11.49;96.70
72061;BME280;59925;52.136;5.420;2023-04-01T12:08:46;100021.56;;;11.47;96.93
72061;BME280;59925;52.136;5.420;2023-04-01T12:14:30;100027.50;;;11.63;97.24
72061;BME280;59925;52.136;5.420;2023-04-01T12:17:19;100032.66;;;11.73;97.14
72061;BME280;59925;52.136;5.420;2023-04-01T12:22:49;100042.59;;;11.59;96.63
72061;BME280;59925;52.136;5.420;2023-04-01T12:41:55;100066.03;;;11.53;97.24
72061;BME280;59925;52.136;5.420;2023-04-01T12:50:14;100070.25;;;11.73;97.75
72061;BME280;59925;52.136;5.420;2023-04-01T12:55:36;100072.44;;;11.85;97.48
72061;BME280;59925;52.136;5.420;2023-04-01T13:01:10;100081.81;;;11.88;96.99
72061;BME280;59925;52.136;5.420;2023-04-01T13:06:23;100078.13;;;11.84;96.95
72061;BME280;59925;52.136;5.420;2023-04-01T13:09:28;100084.59;;;11.83;96.76
72061;BME280;59925;52.136;5.420;2023-04-01T13:15:01;100100.69;;;11.83;96.90
72061;BME280;59925;52.136;5.420;2023-04-01T13:17:35;100103.19;;;11.79;96.83
72061;BME280;59925;52.136;5.420;2023-04-01T13:22:48;100111.69;;;11.67;96.69
72061;BME280;59925;52.136;5.420;2023-04-01T13:30:38;100124.53;;;11.37;96.41
72061;BME280;59925;52.136;5.420;2023-04-01T13:33:17;100129.16;;;11.31;97.11
72061;BME280;59925;52.136;5.420;2023-04-01T13:41:09;100134.84;;;11.11;99.52
72061;BME280;59925;52.136;5.420;2023-04-01T13:43:49;100129.78;;;11.09;100.00
72061;BME280;59925;52.136;5.420;2023-04-01T13:51:55;100143.75;;;11.06;100.00
72061;BME280;59925;52.136;5.420;2023-04-01T14:03:14;100155.38;;;11.01;100.00
72061;BME280;59925;52.136;5.420;2023-04-01T14:05:53;100163.97;;;10.98;100.00
72061;BME280;59925;52.136;5.420;2023-04-01T14:20:02;100192.41;;;10.75;100.00
72061;BME280;59925;52.136;5.420;2023-04-01T14:22:42;100204.50;;;10.72;100.00
72061;BME280;59925;52.136;5.420;2023-04-01T14:27:56;100207.53;;;10.66;100.00
72061;BME280;59925;52.136;5.420;2023-04-01T14:30:42;100201.44;;;10.60;100.00
72061;BME280;59925;52.136;5.420;2023-04-01T14:33:34;100215.19;;;10.53;100.00
72061;BME280;59925;52.136;5.420;2023-04-01T14:36:39;100219.78;;;10.48;100.00
72061;BME280;59925;52.136;5.420;2023-04-01T14:41:57;100226.28;;;10.41;100.00
72061;BME280;59925;52.136;5.420;2023-04-01T14:44:50;100241.31;;;10.37;100.00
72061;BME280;59925;52.136;5.420;2023-04-01T14:50:31;100248.84;;;10.30;100.00
72061;BME280;59925;52.136;5.420;2023-04-01T14:58:16;100264.19;;;10.24;100.00
72061;BME280;59925;52.136;5.420;2023-04-01T15:01:13;100266.84;;;10.24;100.00
72061;BME280;59925;52.136;5.420;2023-04-01T15:04:31;100273.03;;;10.25;100.00
72061;BME280;59925;52.136;5.420;2023-04-01T15:10:09;100284.25;;;10.27;100.00
72061;BME280;59925;52.136;5.420;2023-04-01T15:13:10;100292.00;;;10.28;100.00
72061;BME280;59925;52.136;5.420;2023-04-01T15:18:21;100298.16;;;10.29;100.00
72061;BME280;59925;52.136;5.420;2023-04-01T15:21:08;100308.56;;;10.36;100.00
72061;BME280;59925;52.136;5.420;2023-04-01T15:31:41;100318.47;;;10.40;100.00
72061;BME280;59925;52.136;5.420;2023-04-01T15:34:35;100335.06;;;10.42;100.00
72061;BME280;59925;52.136;5.420;2023-04-01T15:37:22;100336.13;;;10.41;100.00
72061;BME280;59925;52.136;5.420;2023-04-01T15:45:15;100362.75;;;10.27;100.00
72061;BME280;59925;52.136;5.420;2023-04-01T15:47:46;100359.84;;;10.24;100.00
72061;BME280;59925;52.136;5.420;2023-04-01T15:50:33;100368.13;;;10.22;100.00
72061;BME280;59925;52.136;5.420;2023-04-01T15:59:00;100381.59;;;10.12;100.00
72061;BME280;59925;52.136;5.420;2023-04-01T16:01:55;100386.19;;;10.06;100.00
72061;BME280;59925;52.136;5.420;2023-04-01T16:10:29;100407.44;;;9.92;100.00
72061;BME280;59925;52.136;5.420;2023-04-01T16:15:56;100410.91;;;9.88;100.00
72061;BME280;59925;52.136;5.420;2023-04-01T16:18:43;100422.19;;;9.85;100.00
72061;BME280;59925;52.136;5.420;2023-04-01T16:21:27;100430.47;;;9.83;100.00
72061;BME280;59925;52.136;5.420;2023-04-01T16:24:34;100431.00;;;9.80;100.00
72061;BME280;59925;52.136;5.420;2023-04-01T16:27:08;100438.53;;;9.78;100.00
72061;BME280;59925;52.136;5.420;2023-04-01T16:29:49;100450.03;;;9.73;100.00
72061;BME280;59925;52.136;5.420;2023-04-01T16:38:26;100459.75;;;9.59;100.00
72061;BME280;59925;52.136;5.420;2023-04-01T16:43:45;100470.47;;;9.54;100.00
72061;BME280;59925;52.136;5.420;2023-04-01T16:49:04;100478.47;;;9.54;100.00
72061;BME280;59925;52.136;5.420;2023-04-01T16:56:56;100509.78;;;9.43;100.00
72061;BME280;59925;52.136;5.420;2023-04-01T17:00:10;100513.03;;;9.34;100.00
72061;BME280;59925;52.136;5.420;2023-04-01T17:02:38;100523.47;;;9.31;100.00
72061;BME280;59925;52.136;5.420;2023-04-01T17:05:11;100527.47;;;9.23;100.00
72061;BME280;59925;52.136;5.420;2023-04-01T17:10:40;100539.22;;;9.17;100.00
72061;BME280;59925;52.136;5.420;2023-04-01T17:13:33;100546.72;;;9.15;100.00
72061;BME280;59925;52.136;5.420;2023-04-01T17:18:37;100559.56;;;9.08;100.00
72061;BME280;59925;52.136;5.420;2023-04-01T17:21:10;100563.03;;;9.08;100.00
72061;BME280;59925;52.136;5.420;2023-04-01T17:23:48;100567.03;;;9.05;100.00
72061;BME280;59925;52.136;5.420;2023-04-01T17:29:00;100587.38;;;9.07;100.00
72061;BME280;59925;52.136;5.420;2023-04-01T17:31:46;100586.81;;;9.04;100.00
72061;BME280;59925;52.136;5.420;2023-04-01T17:39:27;100612.50;;;8.95;100.00
72061;BME280;59925;52.136;5.420;2023-04-01T17:52:35;100644.53;;;8.85;100.00
72061;BME280;59925;52.136;5.420;2023-04-01T17:57:55;100652.00;;;8.83;100.00
72061;BME280;59925;52.136;5.420;2023-04-01T18:00:46;100659.50;;;8.81;100.00
72061;BME280;59925;52.136;5.420;2023-04-01T18:03:50;100666.16;;;8.78;100.00
72061;BME280;59925;52.136;5.420;2023-04-01T18:17:50;100702.22;;;8.70;100.00
72061;BME280;59925;52.136;5.420;2023-04-01T18:25:41;100722.47;;;8.61;100.00
72061;BME280;59925;52.136;5.420;2023-04-01T18:28:24;100716.59;;;8.59;100.00
72061;BME280;59925;52.136;5.420;2023-04-01T18:33:41;100736.88;;;8.55;100.00
72061;BME280;59925;52.136;5.420;2023-04-01T18:38:50;100749.13;;;8.51;100.00
72061;BME280;59925;52.136;5.420;2023-04-01T18:48:16;100777.91;;;8.43;100.00
72061;BME280;59925;52.136;5.420;2023-04-01T18:53:35;100795.78;;;8.38;100.00
72061;BME280;59925;52.136;5.420;2023-04-01T18:56:06;100795.72;;;8.33;100.00
72061;BME280;59925;52.136;5.420;2023-04-01T18:58:43;100796.00;;;8.31;100.00
72061;BME280;59925;52.136;5.420;2023-04-01T19:01:35;100800.28;;;8.32;99.98
72061;BME280;59925;52.136;5.420;2023-04-01T19:04:39;100817.59;;;8.29;100.00
72061;BME280;59925;52.136;5.420;2023-04-01T19:10:00;100824.00;;;8.28;99.88
72061;BME280;59925;52.136;5.420;2023-04-01T19:21:10;100852.56;;;8.28;99.83
72061;BME280;59925;52.136;5.420;2023-04-01T19:33:10;100885.31;;;8.18;99.40
72061;BME280;59925;52.136;5.420;2023-04-01T19:35:44;100888.25;;;8.17;99.42
72061;BME280;59925;52.136;5.420;2023-04-01T19:38:58;100899.19;;;8.15;99.34
72061;BME280;59925;52.136;5.420;2023-04-01T19:47:01;100909.75;;;8.05;99.25
72061;BME280;59925;52.136;5.420;2023-04-01T19:52:36;100918.59;;;8.05;98.79
72061;BME280;59925;52.136;5.420;2023-04-01T20:00:43;100945.16;;;7.95;98.73
72061;BME280;59925;52.136;5.420;2023-04-01T20:06:07;100960.25;;;7.84;99.11
72061;BME280;59925;52.136;5.420;2023-04-01T20:16:48;100982.28;;;7.74;99.20
72061;BME280;59925;52.136;5.420;2023-04-01T20:19:26;100985.72;;;7.75;98.90
72061;BME280;59925;52.136;5.420;2023-04-01T20:21:58;100995.34;;;7.76;99.14
72061;BME280;59925;52.136;5.420;2023-04-01T20:24:31;100995.88;;;7.73;99.14
72061;BME280;59925;52.136;5.420;2023-04-01T20:27:09;101003.78;;;7.67;98.89
72061;BME280;59925;52.136;5.420;2023-04-01T20:29:41;101013.09;;;7.65;98.96
72061;BME280;59925;52.136;5.420;2023-04-01T20:37:52;101033.78;;;7.58;98.79
72061;BME280;59925;52.136;5.420;2023-04-01T20:40:33;101042.84;;;7.57;98.69
72061;BME280;59925;52.136;5.420;2023-04-01T20:45:56;101050.28;;;7.55;98.65
72061;BME280;59925;52.136;5.420;2023-04-01T20:51:14;101060.41;;;7.53;98.62
72061;BME280;59925;52.136;5.420;2023-04-01T20:56:43;101068.81;;;7.44;98.32
72061;BME280;59925;52.136;5.420;2023-04-01T21:04:27;101083.19;;;7.43;98.25
72061;BME280;59925;52.136;5.420;2023-04-01T21:10:17;101096.47;;;7.38;98.23
72061;BME280;59925;52.136;5.420;2023-04-01T21:13:08;101094.75;;;7.32;98.20
72061;BME280;59925;52.136;5.420;2023-04-01T21:24:42;101129.16;;;7.16;98.37
72061;BME280;59925;52.136;5.420;2023-04-01T21:30:19;101142.63;;;7.10;98.44
72061;BME280;59925;52.136;5.420;2023-04-01T21:41:08;101171.03;;;7.04;98.95
72061;BME280;59925;52.136;5.420;2023-04-01T22:00:48;101201.47;;;6.91;99.36
72061;BME280;59925;52.136;5.420;2023-04-01T22:09:08;101222.34;;;6.82;99.46
72061;BME280;59925;52.136;5.420;2023-04-01T22:12:01;101222.78;;;6.79;99.32
72061;BME280;59925;52.136;5.420;2023-04-01T22:17:38;101241.56;;;6.72;99.20
72061;BME280;59925;52.136;5.420;2023-04-01T22:23:26;101249.81;;;6.71;98.99
72061;BME280;59925;52.136;5.420;2023-04-01T22:26:04;101263.94;;;6.71;98.91
72061;BME280;59925;52.136;5.420;2023-04-01T22:31:33;101262.53;;;6.69;99.12
72061;BME280;59925;52.136;5.420;2023-04-01T22:36:51;101268.78;;;6.63;98.78
72061;BME280;59925;52.136;5.420;2023-04-01T22:39:40;101280.28;;;6.63;98.61
72061;BME280;59925;52.136;5.420;2023-04-01T22:45:21;101283.28;;;6.55;98.91
72061;BME280;59925;52.136;5.420;2023-04-01T22:47:55;101287.22;;;6.52;98.92
72061;BME280;59925;52.136;5.420;2023-04-01T22:50:45;101297.06;;;6.52;98.92